sensor_id;sensor_type;location;lat;lon;timestamp;pressure;altitude;pressure_sealevel;temperature;humidity
57250;BME280;43102;52.014;-0.680;2023-03-20T00:00:00;100877;;;9.15;64.69
57250;BME280;43102;52.014;-0.680;2023-03-20T00:01:00;100877;;;9.15;64.69
57250;BME280;43102;52.014;-0.680;2023-03-20T00:02:00;100877;;;9.15;64.69
57250;BME280;43102;52.014;-0.680;2023-03-20T00:03:00;100872;;;9.09;64.88
57250;BME280;43102;52.014;-0.680;2023-03-20T00:04:00;100872;;;9.09;64.88
57250;BME280;43102;52.014;-0.680;2023-03-20T00:05:00;100872;;;9.09;64.88
57250;BME280;43102;52.014;-0.680;2023-03-20T00:06:00;100872;;;9.09;64.88
57250;BME280;43102;52.014;-0.680;2023-03-20T00:07:00;100872;;;9.09;64.88
57250;BME280;43102;52.014;-0.680;2023-03-20T00:08:00;100873;;;9.14;65.34
57250;BME280;43102;52.014;-0.680;2023-03-20T00:09:00;100873;;;9.14;65.34
57250;BME280;43102;52.014;-0.680;2023-03-20T00:10:00;100873;;;9.14;65.34
57250;BME280;43102;52.014;-0.680;2023-03-20T00:11:00;100873;;;9.14;65.34
57250;BME280;43102;52.014;-0.680;2023-03-20T00:12:00;100873;;;9.14;65.34
57250;BME280;43102;52.014;-0.680;2023-03-20T00:13:00;100865;;;9.12;65.28
57250;BME280;43102;52.014;-0.680;2023-03-20T00:14:02;100865;;;9.12;65.28
57250;BME280;43102;52.014;-0.680;2023-03-20T00:15:00;100865;;;9.12;65.28
57250;BME280;43102;52.014;-0.680;2023-03-20T00:16:00;100865;;;9.12;65.28
57250;BME280;43102;52.014;-0.680;2023-03-20T00:17:00;100865;;;9.12;65.28
57250;BME280;43102;52.014;-0.680;2023-03-20T00:18:00;100861;;;9.12;65.21
57250;BME280;43102;52.014;-0.680;2023-03-20T00:19:00;100861;;;9.12;65.21
57250;BME280;43102;52.014;-0.680;2023-03-20T00:20:00;100861;;;9.12;65.21
57250;BME280;43102;52.014;-0.680;2023-03-20T00:21:00;100861;;;9.12;65.21
57250;BME280;43102;52.014;-0.680;2023-03-20T00:22:00;100861;;;9.12;65.21
57250;BME280;43102;52.014;-0.680;2023-03-20T00:23:00;100857;;;9.12;65.16
57250;BME280;43102;52.014;-0.680;2023-03-20T00:24:00;100857;;;9.12;65.16
57250;BME280;43102;52.014;-0.680;2023-03-20T00:25:00;100857;;;9.12;65.16
57250;BME280;43102;52.014;-0.680;2023-03-20T00:26:00;100857;;;9.12;65.16
57250;BME280;43102;52.014;-0.680;2023-03-20T00:27:00;100857;;;9.12;65.16
57250;BME280;43102;52.014;-0.680;2023-03-20T00:28:22;100849;;;9.11;64.67
57250;BME280;43102;52.014;-0.680;2023-03-20T00:29:00;100849;;;9.11;64.67
57250;BME280;43102;52.014;-0.680;2023-03-20T00:30:00;100849;;;9.11;64.67
57250;BME280;43102;52.014;-0.680;2023-03-20T00:31:00;100849;;;9.11;64.67
57250;BME280;43102;52.014;-0.680;2023-03-20T00:32:00;100849;;;9.11;64.67
57250;BME280;43102;52.014;-0.680;2023-03-20T00:33:00;100844;;;9.10;65.41
57250;BME280;43102;52.014;-0.680;2023-03-20T00:34:02;100844;;;9.10;65.41
57250;BME280;43102;52.014;-0.680;2023-03-20T00:35:01;100844;;;9.10;65.41
57250;BME280;43102;52.014;-0.680;2023-03-20T00:36:00;100844;;;9.10;65.41
57250;BME280;43102;52.014;-0.680;2023-03-20T00:37:00;100844;;;9.10;65.41
57250;BME280;43102;52.014;-0.680;2023-03-20T00:38:00;100846;;;9.08;65.44
57250;BME280;43102;52.014;-0.680;2023-03-20T00:39:00;100846;;;9.08;65.44
57250;BME280;43102;52.014;-0.680;2023-03-20T00:40:00;100846;;;9.08;65.44
57250;BME280;43102;52.014;-0.680;2023-03-20T00:41:00;100846;;;9.08;65.44
57250;BME280;43102;52.014;-0.680;2023-03-20T00:42:01;100846;;;9.08;65.44
57250;BME280;43102;52.014;-0.680;2023-03-20T00:43:01;100852;;;9.07;65.48
57250;BME280;43102;52.014;-0.680;2023-03-20T00:44:02;100852;;;9.07;65.48
57250;BME280;43102;52.014;-0.680;2023-03-20T00:45:00;100852;;;9.07;65.48
57250;BME280;43102;52.014;-0.680;2023-03-20T00:46:00;100852;;;9.07;65.48
57250;BME280;43102;52.014;-0.680;2023-03-20T00:47:01;100852;;;9.07;65.48
57250;BME280;43102;52.014;-0.680;2023-03-20T00:48:00;100853;;;9.05;65.74
57250;BME280;43102;52.014;-0.680;2023-03-20T00:49:00;100853;;;9.05;65.74
57250;BME280;43102;52.014;-0.680;2023-03-20T00:50:00;100853;;;9.05;65.74
57250;BME280;43102;52.014;-0.680;2023-03-20T00:51:00;100853;;;9.05;65.74
57250;BME280;43102;52.014;-0.680;2023-03-20T00:52:01;100853;;;9.05;65.74
57250;BME280;43102;52.014;-0.680;2023-03-20T00:53:00;100857;;;9.08;65.93
57250;BME280;43102;52.014;-0.680;2023-03-20T00:54:00;100857;;;9.08;65.93
57250;BME280;43102;52.014;-0.680;2023-03-20T00:55:00;100857;;;9.08;65.93
57250;BME280;43102;52.014;-0.680;2023-03-20T00:56:00;100857;;;9.08;65.93
57250;BME280;43102;52.014;-0.680;2023-03-20T00:57:01;100857;;;9.08;65.93
57250;BME280;43102;52.014;-0.680;2023-03-20T00:58:00;100845;;;9.05;65.72
57250;BME280;43102;52.014;-0.680;2023-03-20T00:59:01;100845;;;9.05;65.72
57250;BME280;43102;52.014;-0.680;2023-03-20T01:00:03;100845;;;9.05;65.72
57250;BME280;43102;52.014;-0.680;2023-03-20T01:01:00;100845;;;9.05;65.72
57250;BME280;43102;52.014;-0.680;2023-03-20T01:02:00;100845;;;9.05;65.72
57250;BME280;43102;52.014;-0.680;2023-03-20T01:03:00;100832;;;9.05;66.28
57250;BME280;43102;52.014;-0.680;2023-03-20T01:04:00;100832;;;9.05;66.28
57250;BME280;43102;52.014;-0.680;2023-03-20T01:05:00;100832;;;9.05;66.28
57250;BME280;43102;52.014;-0.680;2023-03-20T01:06:00;100832;;;9.05;66.28
57250;BME280;43102;52.014;-0.680;2023-03-20T01:07:00;100832;;;9.05;66.28
57250;BME280;43102;52.014;-0.680;2023-03-20T01:08:00;100827;;;9.02;66.42
57250;BME280;43102;52.014;-0.680;2023-03-20T01:09:00;100827;;;9.02;66.42
57250;BME280;43102;52.014;-0.680;2023-03-20T01:10:00;100827;;;9.02;66.42
57250;BME280;43102;52.014;-0.680;2023-03-20T01:11:00;100827;;;9.02;66.42
57250;BME280;43102;52.014;-0.680;2023-03-20T01:12:00;100827;;;9.02;66.42
57250;BME280;43102;52.014;-0.680;2023-03-20T01:13:00;100833;;;9.02;66.53
57250;BME280;43102;52.014;-0.680;2023-03-20T01:14:01;100833;;;9.02;66.53
57250;BME280;43102;52.014;-0.680;2023-03-20T01:15:00;100833;;;9.02;66.53
57250;BME280;43102;52.014;-0.680;2023-03-20T01:16:00;100833;;;9.02;66.53
57250;BME280;43102;52.014;-0.680;2023-03-20T01:17:00;100833;;;9.02;66.53
57250;BME280;43102;52.014;-0.680;2023-03-20T01:18:00;100820;;;8.98;66.66
57250;BME280;43102;52.014;-0.680;2023-03-20T01:19:00;100820;;;8.98;66.66
57250;BME280;43102;52.014;-0.680;2023-03-20T01:20:00;100820;;;8.98;66.66
57250;BME280;43102;52.014;-0.680;2023-03-20T01:21:00;100820;;;8.98;66.66
57250;BME280;43102;52.014;-0.680;2023-03-20T01:22:00;100820;;;8.98;66.66
57250;BME280;43102;52.014;-0.680;2023-03-20T01:23:00;100816;;;9.03;66.62
57250;BME280;43102;52.014;-0.680;2023-03-20T01:24:00;100816;;;9.03;66.62
57250;BME280;43102;52.014;-0.680;2023-03-20T01:25:00;100816;;;9.03;66.62
57250;BME280;43102;52.014;-0.680;2023-03-20T01:26:00;100816;;;9.03;66.62
57250;BME280;43102;52.014;-0.680;2023-03-20T01:27:00;100816;;;9.03;66.62
57250;BME280;43102;52.014;-0.680;2023-03-20T01:28:00;100823;;;9.03;66.59
57250;BME280;43102;52.014;-0.680;2023-03-20T01:29:00;100823;;;9.03;66.59
57250;BME280;43102;52.014;-0.680;2023-03-20T01:30:00;100823;;;9.03;66.59
57250;BME280;43102;52.014;-0.680;2023-03-20T01:31:00;100823;;;9.03;66.59
57250;BME280;43102;52.014;-0.680;2023-03-20T01:32:00;100823;;;9.03;66.59
57250;BME280;43102;52.014;-0.680;2023-03-20T01:33:00;100835;;;9.07;66.78
57250;BME280;43102;52.014;-0.680;2023-03-20T01:34:01;100835;;;9.07;66.78
57250;BME280;43102;52.014;-0.680;2023-03-20T01:35:00;100835;;;9.07;66.78
57250;BME280;43102;52.014;-0.680;2023-03-20T01:36:00;100835;;;9.07;66.78
57250;BME280;43102;52.014;-0.680;2023-03-20T01:37:00;100835;;;9.07;66.78
57250;BME280;43102;52.014;-0.680;2023-03-20T01:38:00;100830;;;9.10;66.79
57250;BME280;43102;52.014;-0.680;2023-03-20T01:39:00;100830;;;9.10;66.79
57250;BME280;43102;52.014;-0.680;2023-03-20T01:40:00;100830;;;9.10;66.79
57250;BME280;43102;52.014;-0.680;2023-03-20T01:41:02;100830;;;9.10;66.79
57250;BME280;43102;52.014;-0.680;2023-03-20T01:42:01;100830;;;9.10;66.79
57250;BME280;43102;52.014;-0.680;2023-03-20T01:43:00;100828;;;9.05;66.97
57250;BME280;43102;52.014;-0.680;2023-03-20T01:44:00;100828;;;9.05;66.97
57250;BME280;43102;52.014;-0.680;2023-03-20T01:45:00;100828;;;9.05;66.97
57250;BME280;43102;52.014;-0.680;2023-03-20T01:46:12;100828;;;9.05;66.97
57250;BME280;43102;52.014;-0.680;2023-03-20T01:47:00;100828;;;9.05;66.97
57250;BME280;43102;52.014;-0.680;2023-03-20T01:48:04;100832;;;9.05;66.95
57250;BME280;43102;52.014;-0.680;2023-03-20T01:49:06;100832;;;9.05;66.95
57250;BME280;43102;52.014;-0.680;2023-03-20T01:51:00;100832;;;9.05;66.95
57250;BME280;43102;52.014;-0.680;2023-03-20T01:52:00;100832;;;9.05;66.95
57250;BME280;43102;52.014;-0.680;2023-03-20T01:53:05;100822;;;9.07;66.84
57250;BME280;43102;52.014;-0.680;2023-03-20T01:54:03;100822;;;9.07;66.84
57250;BME280;43102;52.014;-0.680;2023-03-20T01:55:00;100822;;;9.07;66.84
57250;BME280;43102;52.014;-0.680;2023-03-20T01:56:00;100822;;;9.07;66.84
57250;BME280;43102;52.014;-0.680;2023-03-20T01:58:01;100818;;;9.07;66.62
57250;BME280;43102;52.014;-0.680;2023-03-20T01:59:02;100818;;;9.07;66.62
57250;BME280;43102;52.014;-0.680;2023-03-20T02:00:03;100818;;;9.07;66.62
57250;BME280;43102;52.014;-0.680;2023-03-20T02:01:00;100818;;;9.07;66.62
57250;BME280;43102;52.014;-0.680;2023-03-20T02:02:00;100818;;;9.07;66.62
57250;BME280;43102;52.014;-0.680;2023-03-20T02:03:00;100809;;;9.05;66.66
57250;BME280;43102;52.014;-0.680;2023-03-20T02:04:00;100809;;;9.05;66.66
57250;BME280;43102;52.014;-0.680;2023-03-20T02:05:01;100809;;;9.05;66.66
57250;BME280;43102;52.014;-0.680;2023-03-20T02:06:00;100809;;;9.05;66.66
57250;BME280;43102;52.014;-0.680;2023-03-20T02:07:00;100809;;;9.05;66.66
57250;BME280;43102;52.014;-0.680;2023-03-20T02:08:04;100802;;;9.09;66.85
57250;BME280;43102;52.014;-0.680;2023-03-20T02:09:00;100802;;;9.09;66.85
57250;BME280;43102;52.014;-0.680;2023-03-20T02:10:01;100802;;;9.09;66.85
57250;BME280;43102;52.014;-0.680;2023-03-20T02:11:00;100802;;;9.09;66.85
57250;BME280;43102;52.014;-0.680;2023-03-20T02:12:00;100802;;;9.09;66.85
57250;BME280;43102;52.014;-0.680;2023-03-20T02:13:00;100795;;;9.05;67.04
57250;BME280;43102;52.014;-0.680;2023-03-20T02:14:00;100795;;;9.05;67.04
57250;BME280;43102;52.014;-0.680;2023-03-20T02:15:00;100795;;;9.05;67.04
57250;BME280;43102;52.014;-0.680;2023-03-20T02:16:03;100795;;;9.05;67.04
57250;BME280;43102;52.014;-0.680;2023-03-20T02:17:01;100795;;;9.05;67.04
57250;BME280;43102;52.014;-0.680;2023-03-20T02:18:00;100779;;;9.07;67.12
57250;BME280;43102;52.014;-0.680;2023-03-20T02:19:00;100779;;;9.07;67.12
57250;BME280;43102;52.014;-0.680;2023-03-20T02:24:08;100777;;;9.05;67.17
57250;BME280;43102;52.014;-0.680;2023-03-20T02:25:06;100777;;;9.05;67.17
57250;BME280;43102;52.014;-0.680;2023-03-20T02:29:05;100765;;;9.05;66.97
57250;BME280;43102;52.014;-0.680;2023-03-20T02:32:13;100765;;;9.05;66.97
57250;BME280;43102;52.014;-0.680;2023-03-20T02:41:04;100744;;;9.05;67.44
57250;BME280;43102;52.014;-0.680;2023-03-20T02:42:05;100744;;;9.05;67.44
57250;BME280;43102;52.014;-0.680;2023-03-20T02:43:02;100735;;;9.07;67.50
57250;BME280;43102;52.014;-0.680;2023-03-20T02:44:10;100735;;;9.07;67.50
57250;BME280;43102;52.014;-0.680;2023-03-20T02:47:02;100735;;;9.07;67.50
57250;BME280;43102;52.014;-0.680;2023-03-20T02:49:02;100737;;;9.08;67.64
57250;BME280;43102;52.014;-0.680;2023-03-20T02:50:04;100737;;;9.08;67.64
57250;BME280;43102;52.014;-0.680;2023-03-20T02:52:07;100737;;;9.08;67.64
57250;BME280;43102;52.014;-0.680;2023-03-20T02:55:07;100733;;;9.10;67.67
57250;BME280;43102;52.014;-0.680;2023-03-20T02:56:08;100733;;;9.10;67.67
57250;BME280;43102;52.014;-0.680;2023-03-20T02:57:01;100733;;;9.10;67.67
57250;BME280;43102;52.014;-0.680;2023-03-20T02:58:04;100735;;;9.09;67.67
57250;BME280;43102;52.014;-0.680;2023-03-20T03:00:05;100735;;;9.09;67.67
57250;BME280;43102;52.014;-0.680;2023-03-20T03:01:09;100735;;;9.09;67.67
57250;BME280;43102;52.014;-0.680;2023-03-20T03:02:03;100735;;;9.09;67.67
57250;BME280;43102;52.014;-0.680;2023-03-20T03:03:10;100730;;;9.13;67.87
57250;BME280;43102;52.014;-0.680;2023-03-20T03:04:03;100730;;;9.13;67.87
57250;BME280;43102;52.014;-0.680;2023-03-20T03:05:01;100730;;;9.13;67.87
57250;BME280;43102;52.014;-0.680;2023-03-20T03:06:02;100730;;;9.13;67.87
57250;BME280;43102;52.014;-0.680;2023-03-20T03:07:00;100730;;;9.13;67.87
57250;BME280;43102;52.014;-0.680;2023-03-20T03:08:00;100721;;;9.14;68.06
57250;BME280;43102;52.014;-0.680;2023-03-20T03:10:02;100721;;;9.14;68.06
57250;BME280;43102;52.014;-0.680;2023-03-20T03:11:02;100721;;;9.14;68.06
57250;BME280;43102;52.014;-0.680;2023-03-20T03:12:02;100721;;;9.14;68.06
57250;BME280;43102;52.014;-0.680;2023-03-20T03:13:00;100722;;;9.19;68.03
57250;BME280;43102;52.014;-0.680;2023-03-20T03:14:00;100722;;;9.19;68.03
57250;BME280;43102;52.014;-0.680;2023-03-20T03:15:02;100722;;;9.19;68.03
57250;BME280;43102;52.014;-0.680;2023-03-20T03:16:02;100722;;;9.19;68.03
57250;BME280;43102;52.014;-0.680;2023-03-20T03:17:00;100722;;;9.19;68.03
57250;BME280;43102;52.014;-0.680;2023-03-20T03:18:00;100726;;;9.25;68.04
57250;BME280;43102;52.014;-0.680;2023-03-20T03:19:02;100726;;;9.25;68.04
57250;BME280;43102;52.014;-0.680;2023-03-20T03:20:02;100726;;;9.25;68.04
57250;BME280;43102;52.014;-0.680;2023-03-20T03:21:00;100726;;;9.25;68.04
57250;BME280;43102;52.014;-0.680;2023-03-20T03:22:00;100726;;;9.25;68.04
57250;BME280;43102;52.014;-0.680;2023-03-20T03:23:00;100738;;;9.25;68.06
57250;BME280;43102;52.014;-0.680;2023-03-20T03:24:00;100738;;;9.25;68.06
57250;BME280;43102;52.014;-0.680;2023-03-20T03:25:00;100738;;;9.25;68.06
57250;BME280;43102;52.014;-0.680;2023-03-20T03:26:01;100738;;;9.25;68.06
57250;BME280;43102;52.014;-0.680;2023-03-20T03:27:01;100738;;;9.25;68.06
57250;BME280;43102;52.014;-0.680;2023-03-20T03:29:03;100732;;;9.30;67.90
57250;BME280;43102;52.014;-0.680;2023-03-20T03:30:05;100732;;;9.30;67.90
57250;BME280;43102;52.014;-0.680;2023-03-20T03:31:00;100732;;;9.30;67.90
57250;BME280;43102;52.014;-0.680;2023-03-20T03:32:00;100732;;;9.30;67.90
57250;BME280;43102;52.014;-0.680;2023-03-20T03:33:05;100728;;;9.34;68.07
57250;BME280;43102;52.014;-0.680;2023-03-20T03:34:00;100728;;;9.34;68.07
57250;BME280;43102;52.014;-0.680;2023-03-20T03:35:00;100728;;;9.34;68.07
57250;BME280;43102;52.014;-0.680;2023-03-20T03:37:19;100728;;;9.34;68.07
57250;BME280;43102;52.014;-0.680;2023-03-20T03:38:20;100719;;;9.43;67.93
57250;BME280;43102;52.014;-0.680;2023-03-20T03:39:04;100719;;;9.43;67.93
57250;BME280;43102;52.014;-0.680;2023-03-20T03:40:02;100719;;;9.43;67.93
57250;BME280;43102;52.014;-0.680;2023-03-20T03:42:02;100719;;;9.43;67.93
57250;BME280;43102;52.014;-0.680;2023-03-20T03:43:01;100708;;;9.45;67.99
57250;BME280;43102;52.014;-0.680;2023-03-20T03:45:02;100708;;;9.45;67.99
57250;BME280;43102;52.014;-0.680;2023-03-20T03:46:01;100708;;;9.45;67.99
57250;BME280;43102;52.014;-0.680;2023-03-20T03:48:04;100710;;;9.44;67.95
57250;BME280;43102;52.014;-0.680;2023-03-20T03:49:00;100710;;;9.44;67.95
57250;BME280;43102;52.014;-0.680;2023-03-20T03:50:02;100710;;;9.44;67.95
57250;BME280;43102;52.014;-0.680;2023-03-20T03:51:03;100710;;;9.44;67.95
57250;BME280;43102;52.014;-0.680;2023-03-20T03:52:01;100710;;;9.44;67.95
57250;BME280;43102;52.014;-0.680;2023-03-20T03:53:01;100697;;;9.35;68.72
57250;BME280;43102;52.014;-0.680;2023-03-20T03:54:05;100697;;;9.35;68.72
57250;BME280;43102;52.014;-0.680;2023-03-20T03:55:05;100697;;;9.35;68.72
57250;BME280;43102;52.014;-0.680;2023-03-20T03:56:01;100697;;;9.35;68.72
57250;BME280;43102;52.014;-0.680;2023-03-20T03:57:00;100697;;;9.35;68.72
57250;BME280;43102;52.014;-0.680;2023-03-20T03:58:01;100690;;;9.49;68.59
57250;BME280;43102;52.014;-0.680;2023-03-20T03:59:01;100690;;;9.49;68.59
57250;BME280;43102;52.014;-0.680;2023-03-20T04:00:00;100690;;;9.49;68.59
57250;BME280;43102;52.014;-0.680;2023-03-20T04:01:00;100690;;;9.49;68.59
57250;BME280;43102;52.014;-0.680;2023-03-20T04:02:00;100690;;;9.49;68.59
57250;BME280;43102;52.014;-0.680;2023-03-20T04:03:00;100691;;;9.44;69.18
57250;BME280;43102;52.014;-0.680;2023-03-20T04:04:01;100691;;;9.44;69.18
57250;BME280;43102;52.014;-0.680;2023-03-20T04:05:00;100691;;;9.44;69.18
57250;BME280;43102;52.014;-0.680;2023-03-20T04:06:00;100691;;;9.44;69.18
57250;BME280;43102;52.014;-0.680;2023-03-20T04:07:00;100691;;;9.44;69.18
57250;BME280;43102;52.014;-0.680;2023-03-20T04:08:01;100679;;;9.53;68.98
57250;BME280;43102;52.014;-0.680;2023-03-20T04:09:00;100679;;;9.53;68.98
57250;BME280;43102;52.014;-0.680;2023-03-20T04:10:00;100679;;;9.53;68.98
57250;BME280;43102;52.014;-0.680;2023-03-20T04:11:00;100679;;;9.53;68.98
57250;BME280;43102;52.014;-0.680;2023-03-20T04:12:00;100679;;;9.53;68.98
57250;BME280;43102;52.014;-0.680;2023-03-20T04:13:00;100676;;;9.60;68.90
57250;BME280;43102;52.014;-0.680;2023-03-20T04:14:00;100676;;;9.60;68.90
57250;BME280;43102;52.014;-0.680;2023-03-20T04:15:00;100676;;;9.60;68.90
57250;BME280;43102;52.014;-0.680;2023-03-20T04:16:00;100676;;;9.60;68.90
57250;BME280;43102;52.014;-0.680;2023-03-20T04:17:00;100676;;;9.60;68.90
57250;BME280;43102;52.014;-0.680;2023-03-20T04:18:00;100676;;;9.61;69.05
57250;BME280;43102;52.014;-0.680;2023-03-20T04:19:00;100676;;;9.61;69.05
57250;BME280;43102;52.014;-0.680;2023-03-20T04:20:00;100676;;;9.61;69.05
57250;BME280;43102;52.014;-0.680;2023-03-20T04:21:00;100676;;;9.61;69.05
57250;BME280;43102;52.014;-0.680;2023-03-20T04:22:00;100676;;;9.61;69.05
57250;BME280;43102;52.014;-0.680;2023-03-20T04:23:00;100678;;;9.62;69.15
57250;BME280;43102;52.014;-0.680;2023-03-20T04:24:00;100678;;;9.62;69.15
57250;BME280;43102;52.014;-0.680;2023-03-20T04:25:01;100678;;;9.62;69.15
57250;BME280;43102;52.014;-0.680;2023-03-20T04:26:00;100678;;;9.62;69.15
57250;BME280;43102;52.014;-0.680;2023-03-20T04:27:00;100678;;;9.62;69.15
57250;BME280;43102;52.014;-0.680;2023-03-20T04:28:00;100681;;;9.68;69.05
57250;BME280;43102;52.014;-0.680;2023-03-20T04:29:00;100681;;;9.68;69.05
57250;BME280;43102;52.014;-0.680;2023-03-20T04:30:00;100681;;;9.68;69.05
57250;BME280;43102;52.014;-0.680;2023-03-20T04:31:00;100681;;;9.68;69.05
57250;BME280;43102;52.014;-0.680;2023-03-20T04:32:00;100681;;;9.68;69.05
57250;BME280;43102;52.014;-0.680;2023-03-20T04:33:00;100680;;;9.68;69.44
57250;BME280;43102;52.014;-0.680;2023-03-20T04:34:00;100680;;;9.68;69.44
57250;BME280;43102;52.014;-0.680;2023-03-20T04:35:00;100680;;;9.68;69.44
57250;BME280;43102;52.014;-0.680;2023-03-20T04:36:00;100680;;;9.68;69.44
57250;BME280;43102;52.014;-0.680;2023-03-20T04:37:00;100680;;;9.68;69.44
57250;BME280;43102;52.014;-0.680;2023-03-20T04:38:00;100672;;;9.63;70.27
57250;BME280;43102;52.014;-0.680;2023-03-20T04:39:00;100672;;;9.63;70.27
57250;BME280;43102;52.014;-0.680;2023-03-20T04:40:00;100672;;;9.63;70.27
57250;BME280;43102;52.014;-0.680;2023-03-20T04:41:00;100672;;;9.63;70.27
57250;BME280;43102;52.014;-0.680;2023-03-20T04:42:00;100672;;;9.63;70.27
57250;BME280;43102;52.014;-0.680;2023-03-20T04:43:00;100666;;;9.75;69.77
57250;BME280;43102;52.014;-0.680;2023-03-20T04:44:01;100666;;;9.75;69.77
57250;BME280;43102;52.014;-0.680;2023-03-20T04:45:00;100666;;;9.75;69.77
57250;BME280;43102;52.014;-0.680;2023-03-20T04:46:00;100666;;;9.75;69.77
57250;BME280;43102;52.014;-0.680;2023-03-20T04:47:00;100666;;;9.75;69.77
57250;BME280;43102;52.014;-0.680;2023-03-20T04:48:00;100669;;;9.64;70.35
57250;BME280;43102;52.014;-0.680;2023-03-20T04:49:00;100669;;;9.64;70.35
57250;BME280;43102;52.014;-0.680;2023-03-20T04:50:00;100669;;;9.64;70.35
57250;BME280;43102;52.014;-0.680;2023-03-20T04:51:00;100669;;;9.64;70.35
57250;BME280;43102;52.014;-0.680;2023-03-20T04:52:00;100669;;;9.64;70.35
57250;BME280;43102;52.014;-0.680;2023-03-20T04:53:00;100670;;;9.68;70.43
57250;BME280;43102;52.014;-0.680;2023-03-20T04:54:02;100670;;;9.68;70.43
57250;BME280;43102;52.014;-0.680;2023-03-20T04:55:00;100670;;;9.68;70.43
57250;BME280;43102;52.014;-0.680;2023-03-20T04:56:00;100670;;;9.68;70.43
57250;BME280;43102;52.014;-0.680;2023-03-20T04:57:00;100670;;;9.68;70.43
57250;BME280;43102;52.014;-0.680;2023-03-20T04:58:00;100670;;;9.69;70.63
57250;BME280;43102;52.014;-0.680;2023-03-20T04:59:00;100670;;;9.69;70.63
57250;BME280;43102;52.014;-0.680;2023-03-20T05:00:00;100670;;;9.69;70.63
57250;BME280;43102;52.014;-0.680;2023-03-20T05:01:00;100670;;;9.69;70.63
57250;BME280;43102;52.014;-0.680;2023-03-20T05:02:00;100670;;;9.69;70.63
57250;BME280;43102;52.014;-0.680;2023-03-20T05:03:00;100669;;;9.76;70.64
57250;BME280;43102;52.014;-0.680;2023-03-20T05:04:00;100669;;;9.76;70.64
57250;BME280;43102;52.014;-0.680;2023-03-20T05:05:00;100669;;;9.76;70.64
57250;BME280;43102;52.014;-0.680;2023-03-20T05:06:00;100669;;;9.76;70.64
57250;BME280;43102;52.014;-0.680;2023-03-20T05:07:00;100669;;;9.76;70.64
57250;BME280;43102;52.014;-0.680;2023-03-20T05:08:00;100665;;;9.75;70.81
57250;BME280;43102;52.014;-0.680;2023-03-20T05:09:00;100665;;;9.75;70.81
57250;BME280;43102;52.014;-0.680;2023-03-20T05:10:00;100665;;;9.75;70.81
57250;BME280;43102;52.014;-0.680;2023-03-20T05:11:00;100665;;;9.75;70.81
57250;BME280;43102;52.014;-0.680;2023-03-20T05:12:00;100665;;;9.75;70.81
57250;BME280;43102;52.014;-0.680;2023-03-20T05:13:00;100671;;;9.77;71.18
57250;BME280;43102;52.014;-0.680;2023-03-20T05:14:00;100671;;;9.77;71.18
57250;BME280;43102;52.014;-0.680;2023-03-20T05:15:00;100671;;;9.77;71.18
57250;BME280;43102;52.014;-0.680;2023-03-20T05:16:00;100671;;;9.77;71.18
57250;BME280;43102;52.014;-0.680;2023-03-20T05:17:00;100671;;;9.77;71.18
57250;BME280;43102;52.014;-0.680;2023-03-20T05:18:00;100667;;;9.80;71.33
57250;BME280;43102;52.014;-0.680;2023-03-20T05:19:00;100667;;;9.80;71.33
57250;BME280;43102;52.014;-0.680;2023-03-20T05:20:00;100667;;;9.80;71.33
57250;BME280;43102;52.014;-0.680;2023-03-20T05:21:00;100667;;;9.80;71.33
57250;BME280;43102;52.014;-0.680;2023-03-20T05:22:00;100667;;;9.80;71.33
57250;BME280;43102;52.014;-0.680;2023-03-20T05:23:00;100675;;;9.73;71.96
57250;BME280;43102;52.014;-0.680;2023-03-20T05:24:00;100675;;;9.73;71.96
57250;BME280;43102;52.014;-0.680;2023-03-20T05:25:00;100675;;;9.73;71.96
57250;BME280;43102;52.014;-0.680;2023-03-20T05:26:00;100675;;;9.73;71.96
57250;BME280;43102;52.014;-0.680;2023-03-20T05:27:00;100675;;;9.73;71.96
57250;BME280;43102;52.014;-0.680;2023-03-20T05:28:00;100667;;;9.83;71.84
57250;BME280;43102;52.014;-0.680;2023-03-20T05:29:00;100667;;;9.83;71.84
57250;BME280;43102;52.014;-0.680;2023-03-20T05:30:00;100667;;;9.83;71.84
57250;BME280;43102;52.014;-0.680;2023-03-20T05:31:00;100667;;;9.83;71.84
57250;BME280;43102;52.014;-0.680;2023-03-20T05:32:00;100667;;;9.83;71.84
57250;BME280;43102;52.014;-0.680;2023-03-20T05:33:00;100667;;;9.81;72.17
57250;BME280;43102;52.014;-0.680;2023-03-20T05:34:00;100667;;;9.81;72.17
57250;BME280;43102;52.014;-0.680;2023-03-20T05:35:00;100667;;;9.81;72.17
57250;BME280;43102;52.014;-0.680;2023-03-20T05:36:00;100667;;;9.81;72.17
57250;BME280;43102;52.014;-0.680;2023-03-20T05:37:00;100667;;;9.81;72.17
57250;BME280;43102;52.014;-0.680;2023-03-20T05:38:00;100663;;;9.84;71.99
57250;BME280;43102;52.014;-0.680;2023-03-20T05:39:00;100663;;;9.84;71.99
57250;BME280;43102;52.014;-0.680;2023-03-20T05:40:00;100663;;;9.84;71.99
57250;BME280;43102;52.014;-0.680;2023-03-20T05:41:00;100663;;;9.84;71.99
57250;BME280;43102;52.014;-0.680;2023-03-20T05:42:00;100663;;;9.84;71.99
57250;BME280;43102;52.014;-0.680;2023-03-20T05:43:00;100669;;;9.89;72.13
57250;BME280;43102;52.014;-0.680;2023-03-20T05:44:00;100669;;;9.89;72.13
57250;BME280;43102;52.014;-0.680;2023-03-20T05:45:00;100669;;;9.89;72.13
57250;BME280;43102;52.014;-0.680;2023-03-20T05:46:00;100669;;;9.89;72.13
57250;BME280;43102;52.014;-0.680;2023-03-20T05:47:00;100669;;;9.89;72.13
57250;BME280;43102;52.014;-0.680;2023-03-20T05:48:00;100670;;;9.87;72.35
57250;BME280;43102;52.014;-0.680;2023-03-20T05:49:00;100670;;;9.87;72.35
57250;BME280;43102;52.014;-0.680;2023-03-20T05:50:00;100670;;;9.87;72.35
57250;BME280;43102;52.014;-0.680;2023-03-20T05:51:00;100670;;;9.87;72.35
57250;BME280;43102;52.014;-0.680;2023-03-20T05:52:00;100670;;;9.87;72.35
57250;BME280;43102;52.014;-0.680;2023-03-20T05:53:00;100658;;;9.89;72.46
57250;BME280;43102;52.014;-0.680;2023-03-20T05:54:00;100658;;;9.89;72.46
57250;BME280;43102;52.014;-0.680;2023-03-20T05:55:00;100658;;;9.89;72.46
57250;BME280;43102;52.014;-0.680;2023-03-20T05:56:00;100658;;;9.89;72.46
57250;BME280;43102;52.014;-0.680;2023-03-20T05:57:00;100658;;;9.89;72.46
57250;BME280;43102;52.014;-0.680;2023-03-20T05:58:00;100674;;;9.96;72.77